sensor_id;sensor_type;location;lat;lon;timestamp;P1;durP1;ratioP1;P2;durP2;ratioP2
67508;SDS011;54354;44.724;11.284;2022-08-20T00:01:23;5.95;;;4.82;;
67508;SDS011;54354;44.724;11.284;2022-08-20T00:03:49;5.25;;;4.50;;
67508;SDS011;54354;44.724;11.284;2022-08-20T00:06:16;7.68;;;4.82;;
67508;SDS011;54354;44.724;11.284;2022-08-20T00:08:44;6.25;;;4.63;;
67508;SDS011;54354;44.724;11.284;2022-08-20T00:11:10;6.72;;;4.65;;
67508;SDS011;54354;44.724;11.284;2022-08-20T00:13:43;4.82;;;4.40;;
67508;SDS011;54354;44.724;11.284;2022-08-20T00:16:11;8.48;;;4.80;;
67508;SDS011;54354;44.724;11.284;2022-08-20T00:18:38;7.80;;;4.68;;
67508;SDS011;54354;44.724;11.284;2022-08-20T00:21:06;5.53;;;4.75;;
67508;SDS011;54354;44.724;11.284;2022-08-20T00:23:37;6.68;;;4.25;;
67508;SDS011;54354;44.724;11.284;2022-08-20T00:26:05;4.95;;;4.47;;
67508;SDS011;54354;44.724;11.284;2022-08-20T00:28:32;7.07;;;4.55;;
67508;SDS011;54354;44.724;11.284;2022-08-20T00:30:58;5.85;;;4.20;;
67508;SDS011;54354;44.724;11.284;2022-08-20T00:33:23;5.78;;;4.57;;
67508;SDS011;54354;44.724;11.284;2022-08-20T00:35:51;5.22;;;4.72;;
67508;SDS011;54354;44.724;11.284;2022-08-20T00:38:20;6.78;;;4.50;;
67508;SDS011;54354;44.724;11.284;2022-08-20T00:40:55;7.03;;;4.10;;
67508;SDS011;54354;44.724;11.284;2022-08-20T00:43:38;5.38;;;3.70;;
67508;SDS011;54354;44.724;11.284;2022-08-20T00:46:05;6.55;;;3.90;;
67508;SDS011;54354;44.724;11.284;2022-08-20T00:48:34;4.03;;;3.67;;
67508;SDS011;54354;44.724;11.284;2022-08-20T00:51:07;7.32;;;4.00;;
67508;SDS011;54354;44.724;11.284;2022-08-20T00:53:35;4.28;;;3.88;;
67508;SDS011;54354;44.724;11.284;2022-08-20T00:56:02;5.28;;;3.80;;
67508;SDS011;54354;44.724;11.284;2022-08-20T00:58:30;5.82;;;4.05;;
67508;SDS011;54354;44.724;11.284;2022-08-20T01:00:57;4.65;;;4.00;;
67508;SDS011;54354;44.724;11.284;2022-08-20T01:03:23;4.78;;;3.88;;
67508;SDS011;54354;44.724;11.284;2022-08-20T01:05:50;5.65;;;4.28;;
67508;SDS011;54354;44.724;11.284;2022-08-20T01:08:17;4.80;;;4.40;;
67508;SDS011;54354;44.724;11.284;2022-08-20T01:10:45;4.93;;;3.70;;
67508;SDS011;54354;44.724;11.284;2022-08-20T01:13:15;4.53;;;3.80;;
67508;SDS011;54354;44.724;11.284;2022-08-20T01:15:45;5.30;;;4.25;;
67508;SDS011;54354;44.724;11.284;2022-08-20T01:18:12;4.82;;;3.72;;
67508;SDS011;54354;44.724;11.284;2022-08-20T01:20:45;6.60;;;4.07;;
67508;SDS011;54354;44.724;11.284;2022-08-20T01:26:30;6.03;;;3.70;;
67508;SDS011;54354;44.724;11.284;2022-08-20T01:29:14;3.95;;;3.53;;
67508;SDS011;54354;44.724;11.284;2022-08-20T01:31:42;5.53;;;3.40;;
67508;SDS011;54354;44.724;11.284;2022-08-20T01:34:10;3.60;;;3.30;;
67508;SDS011;54354;44.724;11.284;2022-08-20T01:39:08;8.20;;;3.90;;
67508;SDS011;54354;44.724;11.284;2022-08-20T01:44:27;4.10;;;3.70;;
67508;SDS011;54354;44.724;11.284;2022-08-20T01:46:54;4.20;;;3.70;;
67508;SDS011;54354;44.724;11.284;2022-08-20T01:49:27;7.40;;;3.67;;
67508;SDS011;54354;44.724;11.284;2022-08-20T01:51:55;5.82;;;3.60;;
67508;SDS011;54354;44.724;11.284;2022-08-20T01:54:25;3.92;;;3.53;;
67508;SDS011;54354;44.724;11.284;2022-08-20T01:56:54;4.47;;;4.05;;
67508;SDS011;54354;44.724;11.284;2022-08-20T01:59:24;7.28;;;3.78;;
67508;SDS011;54354;44.724;11.284;2022-08-20T02:01:50;5.15;;;3.55;;
67508;SDS011;54354;44.724;11.284;2022-08-20T02:04:17;6.22;;;3.35;;
67508;SDS011;54354;44.724;11.284;2022-08-20T02:06:45;3.47;;;3.17;;
67508;SDS011;54354;44.724;11.284;2022-08-20T02:09:13;6.80;;;3.70;;
67508;SDS011;54354;44.724;11.284;2022-08-20T02:11:39;3.97;;;3.55;;
67508;SDS011;54354;44.724;11.284;2022-08-20T02:14:05;3.80;;;3.50;;
67508;SDS011;54354;44.724;11.284;2022-08-20T02:16:34;5.32;;;3.30;;
67508;SDS011;54354;44.724;11.284;2022-08-20T02:19:13;6.15;;;3.33;;
67508;SDS011;54354;44.724;11.284;2022-08-20T02:21:47;5.80;;;3.88;;
67508;SDS011;54354;44.724;11.284;2022-08-20T02:24:17;4.13;;;3.70;;
67508;SDS011;54354;44.724;11.284;2022-08-20T02:26:44;4.32;;;3.50;;
67508;SDS011;54354;44.724;11.284;2022-08-20T02:29:10;3.42;;;3.10;;
67508;SDS011;54354;44.724;11.284;2022-08-20T02:31:38;4.63;;;3.65;;
67508;SDS011;54354;44.724;11.284;2022-08-20T02:34:05;3.42;;;3.13;;
67508;SDS011;54354;44.724;11.284;2022-08-20T02:36:33;4.07;;;3.65;;
67508;SDS011;54354;44.724;11.284;2022-08-20T02:39:03;3.80;;;3.28;;
67508;SDS011;54354;44.724;11.284;2022-08-20T02:41:31;4.25;;;3.60;;
67508;SDS011;54354;44.724;11.284;2022-08-20T02:43:57;7.50;;;3.65;;
67508;SDS011;54354;44.724;11.284;2022-08-20T02:46:23;3.80;;;3.50;;
67508;SDS011;54354;44.724;11.284;2022-08-20T02:48:48;6.97;;;3.50;;
67508;SDS011;54354;44.724;11.284;2022-08-20T02:51:14;4.78;;;3.30;;
67508;SDS011;54354;44.724;11.284;2022-08-20T02:53:40;6.45;;;3.47;;
67508;SDS011;54354;44.724;11.284;2022-08-20T02:56:06;4.03;;;3.22;;
67508;SDS011;54354;44.724;11.284;2022-08-20T02:58:33;5.15;;;4.00;;
67508;SDS011;54354;44.724;11.284;2022-08-20T03:01:00;4.68;;;3.80;;
67508;SDS011;54354;44.724;11.284;2022-08-20T03:03:26;5.43;;;3.47;;
67508;SDS011;54354;44.724;11.284;2022-08-20T03:05:53;3.80;;;3.42;;
67508;SDS011;54354;44.724;11.284;2022-08-20T03:08:19;5.40;;;3.53;;
67508;SDS011;54354;44.724;11.284;2022-08-20T03:10:46;5.90;;;3.72;;
67508;SDS011;54354;44.724;11.284;2022-08-20T03:13:13;6.75;;;3.60;;
67508;SDS011;54354;44.724;11.284;2022-08-20T03:15:41;5.03;;;3.60;;
67508;SDS011;54354;44.724;11.284;2022-08-20T03:18:09;5.22;;;3.22;;
67508;SDS011;54354;44.724;11.284;2022-08-20T03:20:35;6.68;;;3.35;;
67508;SDS011;54354;44.724;11.284;2022-08-20T03:23:01;4.32;;;3.50;;
67508;SDS011;54354;44.724;11.284;2022-08-20T03:25:26;7.90;;;3.50;;
67508;SDS011;54354;44.724;11.284;2022-08-20T03:27:53;5.65;;;3.60;;
67508;SDS011;54354;44.724;11.284;2022-08-20T03:30:20;4.95;;;3.10;;
67508;SDS011;54354;44.724;11.284;2022-08-20T03:32:47;4.82;;;3.33;;
67508;SDS011;54354;44.724;11.284;2022-08-20T03:35:13;6.18;;;3.67;;
67508;SDS011;54354;44.724;11.284;2022-08-20T03:37:40;5.57;;;4.03;;
67508;SDS011;54354;44.724;11.284;2022-08-20T03:40:07;6.97;;;3.78;;
67508;SDS011;54354;44.724;11.284;2022-08-20T03:42:35;4.57;;;4.18;;
67508;SDS011;54354;44.724;11.284;2022-08-20T03:45:00;6.57;;;3.88;;
67508;SDS011;54354;44.724;11.284;2022-08-20T03:47:26;6.68;;;4.07;;
67508;SDS011;54354;44.724;11.284;2022-08-20T03:49:51;5.10;;;3.75;;
67508;SDS011;54354;44.724;11.284;2022-08-20T03:52:21;4.00;;;3.55;;
67508;SDS011;54354;44.724;11.284;2022-08-20T03:54:47;5.07;;;3.72;;
67508;SDS011;54354;44.724;11.284;2022-08-20T03:57:13;7.82;;;4.28;;
67508;SDS011;54354;44.724;11.284;2022-08-20T03:59:39;5.38;;;4.40;;
67508;SDS011;54354;44.724;11.284;2022-08-20T04:02:06;6.97;;;3.80;;
67508;SDS011;54354;44.724;11.284;2022-08-20T04:04:31;5.28;;;4.13;;
67508;SDS011;54354;44.724;11.284;2022-08-20T04:06:57;5.95;;;4.00;;
67508;SDS011;54354;44.724;11.284;2022-08-20T04:09:22;6.25;;;4.53;;
67508;SDS011;54354;44.724;11.284;2022-08-20T04:11:48;5.85;;;3.78;;
67508;SDS011;54354;44.724;11.284;2022-08-20T04:14:14;5.72;;;3.95;;
67508;SDS011;54354;44.724;11.284;2022-08-20T04:16:39;7.28;;;4.20;;
67508;SDS011;54354;44.724;11.284;2022-08-20T04:19:05;6.40;;;4.20;;
67508;SDS011;54354;44.724;11.284;2022-08-20T04:21:34;5.03;;;3.90;;
67508;SDS011;54354;44.724;11.284;2022-08-20T04:24:01;5.80;;;4.57;;
67508;SDS011;54354;44.724;11.284;2022-08-20T04:26:28;10.48;;;4.60;;
67508;SDS011;54354;44.724;11.284;2022-08-20T04:28:54;4.57;;;4.18;;
67508;SDS011;54354;44.724;11.284;2022-08-20T04:31:20;7.10;;;4.10;;
67508;SDS011;54354;44.724;11.284;2022-08-20T04:33:48;5.00;;;4.50;;
67508;SDS011;54354;44.724;11.284;2022-08-20T04:36:14;7.70;;;4.78;;
67508;SDS011;54354;44.724;11.284;2022-08-20T04:38:40;6.40;;;4.20;;
67508;SDS011;54354;44.724;11.284;2022-08-20T04:41:05;5.28;;;3.90;;
67508;SDS011;54354;44.724;11.284;2022-08-20T04:43:35;6.18;;;4.30;;
67508;SDS011;54354;44.724;11.284;2022-08-20T04:46:07;4.93;;;4.22;;
67508;SDS011;54354;44.724;11.284;2022-08-20T04:48:38;7.95;;;4.50;;
67508;SDS011;54354;44.724;11.284;2022-08-20T04:51:05;7.43;;;5.00;;
67508;SDS011;54354;44.724;11.284;2022-08-20T04:53:32;6.18;;;4.50;;
67508;SDS011;54354;44.724;11.284;2022-08-20T04:55:59;4.25;;;3.92;;
67508;SDS011;54354;44.724;11.284;2022-08-20T05:00:55;5.30;;;3.97;;
67508;SDS011;54354;44.724;11.284;2022-08-20T05:03:23;7.28;;;4.13;;
67508;SDS011;54354;44.724;11.284;2022-08-20T05:05:49;5.70;;;4.50;;
67508;SDS011;54354;44.724;11.284;2022-08-20T05:08:16;6.18;;;3.95;;
67508;SDS011;54354;44.724;11.284;2022-08-20T05:10:43;6.43;;;4.30;;
67508;SDS011;54354;44.724;11.284;2022-08-20T05:13:09;5.22;;;4.55;;
67508;SDS011;54354;44.724;11.284;2022-08-20T05:15:35;4.22;;;3.83;;
67508;SDS011;54354;44.724;11.284;2022-08-20T05:18:04;5.60;;;4.22;;
67508;SDS011;54354;44.724;11.284;2022-08-20T05:20:33;8.60;;;4.32;;
67508;SDS011;54354;44.724;11.284;2022-08-20T05:23:04;6.72;;;3.80;;
67508;SDS011;54354;44.724;11.284;2022-08-20T05:25:31;3.83;;;3.50;;
67508;SDS011;54354;44.724;11.284;2022-08-20T05:27:57;7.05;;;3.65;;
67508;SDS011;54354;44.724;11.284;2022-08-20T05:30:25;3.83;;;3.42;;
67508;SDS011;54354;44.724;11.284;2022-08-20T05:32:57;6.20;;;3.42;;
67508;SDS011;54354;44.724;11.284;2022-08-20T05:37:53;3.67;;;3.10;;
67508;SDS011;54354;44.724;11.284;2022-08-20T05:40:19;7.40;;;3.15;;
67508;SDS011;54354;44.724;11.284;2022-08-20T05:42:47;3.75;;;3.35;;
67508;SDS011;54354;44.724;11.284;2022-08-20T05:45:12;4.32;;;3.10;;
67508;SDS011;54354;44.724;11.284;2022-08-20T05:47:41;5.28;;;2.65;;
67508;SDS011;54354;44.724;11.284;2022-08-20T05:50:07;5.68;;;2.55;;
67508;SDS011;54354;44.724;11.284;2022-08-20T05:52:34;3.78;;;2.90;;
67508;SDS011;54354;44.724;11.284;2022-08-20T05:55:02;3.47;;;2.80;;
67508;SDS011;54354;44.724;11.284;2022-08-20T05:57:29;5.22;;;2.72;;
67508;SDS011;54354;44.724;11.284;2022-08-20T05:59:54;6.28;;;2.70;;
67508;SDS011;54354;44.724;11.284;2022-08-20T06:02:19;3.88;;;2.97;;
67508;SDS011;54354;44.724;11.284;2022-08-20T06:05:04;4.85;;;2.50;;
67508;SDS011;54354;44.724;11.284;2022-08-20T06:07:29;3.22;;;2.80;;
67508;SDS011;54354;44.724;11.284;2022-08-20T06:09:55;5.00;;;2.47;;
67508;SDS011;54354;44.724;11.284;2022-08-20T06:12:21;5.90;;;2.22;;
67508;SDS011;54354;44.724;11.284;2022-08-20T06:14:46;3.38;;;2.70;;
67508;SDS011;54354;44.724;11.284;2022-08-20T06:17:13;6.00;;;2.95;;
67508;SDS011;54354;44.724;11.284;2022-08-20T06:19:43;6.55;;;2.90;;
67508;SDS011;54354;44.724;11.284;2022-08-20T06:22:10;4.45;;;2.90;;
67508;SDS011;54354;44.724;11.284;2022-08-20T06:24:36;3.70;;;3.10;;
67508;SDS011;54354;44.724;11.284;2022-08-20T06:27:02;5.53;;;3.08;;
67508;SDS011;54354;44.724;11.284;2022-08-20T06:29:30;7.35;;;3.15;;
67508;SDS011;54354;44.724;11.284;2022-08-20T06:31:58;5.75;;;3.40;;
67508;SDS011;54354;44.724;11.284;2022-08-20T06:34:26;3.80;;;3.15;;
67508;SDS011;54354;44.724;11.284;2022-08-20T06:36:55;4.20;;;3.55;;
67508;SDS011;54354;44.724;11.284;2022-08-20T06:41:48;4.55;;;3.40;;
67508;SDS011;54354;44.724;11.284;2022-08-20T06:44:15;6.88;;;3.40;;
67508;SDS011;54354;44.724;11.284;2022-08-20T06:46:42;5.53;;;3.25;;
67508;SDS011;54354;44.724;11.284;2022-08-20T06:49:08;3.83;;;3.53;;
67508;SDS011;54354;44.724;11.284;2022-08-20T06:51:33;4.93;;;3.38;;
67508;SDS011;54354;44.724;11.284;2022-08-20T06:54:01;4.35;;;3.30;;
67508;SDS011;54354;44.724;11.284;2022-08-20T06:56:28;3.55;;;3.25;;
67508;SDS011;54354;44.724;11.284;2022-08-20T06:58:53;3.33;;;3.03;;
67508;SDS011;54354;44.724;11.284;2022-08-20T07:01:19;5.95;;;3.67;;
67508;SDS011;54354;44.724;11.284;2022-08-20T07:03:46;5.70;;;2.85;;
67508;SDS011;54354;44.724;11.284;2022-08-20T07:06:13;3.47;;;3.10;;
67508;SDS011;54354;44.724;11.284;2022-08-20T07:08:40;3.80;;;3.40;;
67508;SDS011;54354;44.724;11.284;2022-08-20T07:11:06;7.07;;;3.20;;
67508;SDS011;54354;44.724;11.284;2022-08-20T07:13:32;4.60;;;2.63;;
67508;SDS011;54354;44.724;11.284;2022-08-20T07:15:57;2.83;;;2.63;;
67508;SDS011;54354;44.724;11.284;2022-08-20T07:18:23;3.67;;;2.60;;
67508;SDS011;54354;44.724;11.284;2022-08-20T07:20:49;3.25;;;2.40;;
67508;SDS011;54354;44.724;11.284;2022-08-20T07:23:14;4.40;;;2.67;;
67508;SDS011;54354;44.724;11.284;2022-08-20T07:25:41;4.65;;;2.55;;
67508;SDS011;54354;44.724;11.284;2022-08-20T07:28:12;3.33;;;2.35;;
67508;SDS011;54354;44.724;11.284;2022-08-20T07:30:41;6.28;;;2.85;;
67508;SDS011;54354;44.724;11.284;2022-08-20T07:33:26;3.47;;;2.60;;
67508;SDS011;54354;44.724;11.284;2022-08-20T07:35:53;5.95;;;2.35;;
67508;SDS011;54354;44.724;11.284;2022-08-20T07:40:54;6.47;;;2.30;;
67508;SDS011;54354;44.724;11.284;2022-08-20T07:43:22;2.92;;;2.38;;
67508;SDS011;54354;44.724;11.284;2022-08-20T07:45:51;4.95;;;2.08;;
67508;SDS011;54354;44.724;11.284;2022-08-20T07:48:19;3.33;;;1.98;;
67508;SDS011;54354;44.724;11.284;2022-08-20T07:50:46;2.35;;;1.90;;
67508;SDS011;54354;44.724;11.284;2022-08-20T07:53:14;5.57;;;2.20;;
67508;SDS011;54354;44.724;11.284;2022-08-20T07:55:40;6.93;;;2.53;;
67508;SDS011;54354;44.724;11.284;2022-08-20T07:58:10;2.70;;;2.08;;
67508;SDS011;54354;44.724;11.284;2022-08-20T08:00:37;2.78;;;2.30;;
67508;SDS011;54354;44.724;11.284;2022-08-20T08:03:03;2.90;;;2.40;;
67508;SDS011;54354;44.724;11.284;2022-08-20T08:05:30;4.57;;;2.05;;
67508;SDS011;54354;44.724;11.284;2022-08-20T08:07:57;3.90;;;2.03;;
67508;SDS011;54354;44.724;11.284;2022-08-20T08:10:22;3.75;;;2.15;;
67508;SDS011;54354;44.724;11.284;2022-08-20T08:12:50;5.90;;;2.25;;
67508;SDS011;54354;44.724;11.284;2022-08-20T08:17:48;5.28;;;2.22;;
67508;SDS011;54354;44.724;11.284;2022-08-20T08:20:17;5.85;;;2.10;;
67508;SDS011;54354;44.724;11.284;2022-08-20T08:22:44;4.97;;;1.98;;
67508;SDS011;54354;44.724;11.284;2022-08-20T08:25:10;5.15;;;2.13;;
67508;SDS011;54354;44.724;11.284;2022-08-20T08:27:37;4.45;;;2.00;;
67508;SDS011;54354;44.724;11.284;2022-08-20T08:30:03;3.50;;;1.90;;
67508;SDS011;54354;44.724;11.284;2022-08-20T08:32:29;3.65;;;1.40;;
67508;SDS011;54354;44.724;11.284;2022-08-20T08:34:57;2.88;;;1.60;;
67508;SDS011;54354;44.724;11.284;2022-08-20T08:37:26;2.78;;;1.90;;
67508;SDS011;54354;44.724;11.284;2022-08-20T08:39:52;1.85;;;1.58;;
67508;SDS011;54354;44.724;11.284;2022-08-20T08:42:25;4.60;;;1.83;;
67508;SDS011;54354;44.724;11.284;2022-08-20T08:44:58;1.83;;;1.67;;
67508;SDS011;54354;44.724;11.284;2022-08-20T08:47:29;2.65;;;2.15;;
67508;SDS011;54354;44.724;11.284;2022-08-20T08:49:59;4.15;;;1.90;;
67508;SDS011;54354;44.724;11.284;2022-08-20T08:52:27;1.63;;;1.50;;
67508;SDS011;54354;44.724;11.284;2022-08-20T08:54:57;2.30;;;1.80;;
67508;SDS011;54354;44.724;11.284;2022-08-20T08:57:25;2.07;;;1.90;;
67508;SDS011;54354;44.724;11.284;2022-08-20T08:59:58;5.05;;;2.08;;
67508;SDS011;54354;44.724;11.284;2022-08-20T09:02:26;9.43;;;2.15;;
67508;SDS011;54354;44.724;11.284;2022-08-20T09:04:54;2.33;;;1.95;;
67508;SDS011;54354;44.724;11.284;2022-08-20T09:07:22;2.53;;;1.70;;
67508;SDS011;54354;44.724;11.284;2022-08-20T09:09:50;3.85;;;1.70;;
67508;SDS011;54354;44.724;11.284;2022-08-20T09:12:17;2.78;;;1.40;;
67508;SDS011;54354;44.724;11.284;2022-08-20T09:14:45;2.42;;;1.60;;
67508;SDS011;54354;44.724;11.284;2022-08-20T09:17:12;2.03;;;1.70;;
67508;SDS011;54354;44.724;11.284;2022-08-20T09:19:39;4.95;;;2.70;;
67508;SDS011;54354;44.724;11.284;2022-08-20T09:22:08;2.38;;;1.75;;
67508;SDS011;54354;44.724;11.284;2022-08-20T09:24:36;2.28;;;2.08;;
67508;SDS011;54354;44.724;11.284;2022-08-20T09:27:02;3.35;;;2.50;;
67508;SDS011;54354;44.724;11.284;2022-08-20T09:29:28;4.47;;;2.20;;
67508;SDS011;54354;44.724;11.284;2022-08-20T09:34:50;3.17;;;2.58;;
67508;SDS011;54354;44.724;11.284;2022-08-20T09:37:21;3.30;;;2.40;;
67508;SDS011;54354;44.724;11.284;2022-08-20T09:39:47;4.13;;;2.70;;
67508;SDS011;54354;44.724;11.284;2022-08-20T10:45:41;4.13;;;1.50;;
67508;SDS011;54354;44.724;11.284;2022-08-20T10:48:07;5.13;;;1.20;;
67508;SDS011;54354;44.724;11.284;2022-08-20T10:50:32;6.32;;;1.20;;
67508;SDS011;54354;44.724;11.284;2022-08-20T10:52:58;2.70;;;0.90;;
67508;SDS011;54354;44.724;11.284;2022-08-20T10:55:24;5.10;;;1.10;;
67508;SDS011;54354;44.724;11.284;2022-08-20T10:57:49;3.67;;;1.13;;
67508;SDS011;54354;44.724;11.284;2022-08-20T11:00:15;4.28;;;1.10;;
67508;SDS011;54354;44.724;11.284;2022-08-20T11:02:41;5.97;;;1.42;;
67508;SDS011;54354;44.724;11.284;2022-08-20T11:05:07;2.05;;;1.20;;
67508;SDS011;54354;44.724;11.284;2022-08-20T11:07:35;1.15;;;0.90;;
67508;SDS011;54354;44.724;11.284;2022-08-20T11:10:03;2.07;;;1.07;;
67508;SDS011;54354;44.724;11.284;2022-08-20T11:12:30;1.50;;;0.82;;
67508;SDS011;54354;44.724;11.284;2022-08-20T11:14:55;1.25;;;0.88;;
67508;SDS011;54354;44.724;11.284;2022-08-20T11:17:21;2.20;;;0.80;;
67508;SDS011;54354;44.724;11.284;2022-08-20T11:19:49;6.13;;;1.30;;
67508;SDS011;54354;44.724;11.284;2022-08-20T11:22:15;3.15;;;0.90;;
67508;SDS011;54354;44.724;11.284;2022-08-20T11:24:41;2.08;;;0.70;;
67508;SDS011;54354;44.724;11.284;2022-08-20T11:27:06;1.98;;;0.90;;
67508;SDS011;54354;44.724;11.284;2022-08-20T11:29:33;3.88;;;1.30;;
67508;SDS011;54354;44.724;11.284;2022-08-20T11:32:00;3.90;;;0.98;;
67508;SDS011;54354;44.724;11.284;2022-08-20T11:34:25;3.55;;;0.90;;
67508;SDS011;54354;44.724;11.284;2022-08-20T11:36:51;1.25;;;0.82;;
67508;SDS011;54354;44.724;11.284;2022-08-20T11:39:17;4.10;;;1.08;;
67508;SDS011;54354;44.724;11.284;2022-08-20T11:41:43;1.55;;;0.80;;
67508;SDS011;54354;44.724;11.284;2022-08-20T11:44:08;5.07;;;1.00;;
67508;SDS011;54354;44.724;11.284;2022-08-20T11:46:34;1.60;;;0.90;;
67508;SDS011;54354;44.724;11.284;2022-08-20T11:49:00;1.85;;;0.80;;
67508;SDS011;54354;44.724;11.284;2022-08-20T11:51:26;1.45;;;0.70;;
67508;SDS011;54354;44.724;11.284;2022-08-20T11:53:51;1.90;;;1.05;;
67508;SDS011;54354;44.724;11.284;2022-08-20T11:56:16;1.40;;;0.80;;
67508;SDS011;54354;44.724;11.284;2022-08-20T11:58:44;4.75;;;1.10;;
67508;SDS011;54354;44.724;11.284;2022-08-20T12:01:11;1.90;;;0.85;;
67508;SDS011;54354;44.724;11.284;2022-08-20T12:03:36;1.30;;;0.80;;
67508;SDS011;54354;44.724;11.284;2022-08-20T12:06:02;3.28;;;0.80;;
67508;SDS011;54354;44.724;11.284;2022-08-20T12:08:27;1.75;;;0.90;;
67508;SDS011;54354;44.724;11.284;2022-08-20T12:10:58;1.48;;;0.85;;
67508;SDS011;54354;44.724;11.284;2022-08-20T12:13:26;1.48;;;0.80;;
67508;SDS011;54354;44.724;11.284;2022-08-20T12:15:54;2.45;;;0.70;;
67508;SDS011;54354;44.724;11.284;2022-08-20T12:18:20;1.20;;;0.80;;
67508;SDS011;54354;44.724;11.284;2022-08-20T12:20:45;1.67;;;1.00;;
67508;SDS011;54354;44.724;11.284;2022-08-20T12:23:11;2.25;;;0.82;;
67508;SDS011;54354;44.724;11.284;2022-08-20T12:25:36;1.45;;;0.70;;
67508;SDS011;54354;44.724;11.284;2022-08-20T12:28:02;2.42;;;0.85;;
67508;SDS011;54354;44.724;11.284;2022-08-20T12:30:29;1.75;;;0.60;;
67508;SDS011;54354;44.724;11.284;2022-08-20T12:32:56;1.35;;;0.70;;
67508;SDS011;54354;44.724;11.284;2022-08-20T12:35:22;2.83;;;0.88;;
67508;SDS011;54354;44.724;11.284;2022-08-20T12:37:47;0.82;;;0.60;;
67508;SDS011;54354;44.724;11.284;2022-08-20T12:40:15;1.92;;;0.75;;
67508;SDS011;54354;44.724;11.284;2022-08-20T12:42:43;2.20;;;0.68;;
67508;SDS011;54354;44.724;11.284;2022-08-20T12:45:08;2.35;;;0.80;;
67508;SDS011;54354;44.724;11.284;2022-08-20T12:47:39;2.72;;;1.00;;
67508;SDS011;54354;44.724;11.284;2022-08-20T12:50:12;1.85;;;0.60;;
67508;SDS011;54354;44.724;11.284;2022-08-20T12:52:39;1.25;;;0.60;;
67508;SDS011;54354;44.724;11.284;2022-08-20T12:55:05;2.05;;;0.60;;
67508;SDS011;54354;44.724;11.284;2022-08-20T12:57:34;2.83;;;0.60;;
67508;SDS011;54354;44.724;11.284;2022-08-20T13:00:09;1.15;;;0.50;;
67508;SDS011;54354;44.724;11.284;2022-08-20T13:02:44;0.93;;;0.50;;
67508;SDS011;54354;44.724;11.284;2022-08-20T13:05:11;2.92;;;0.57;;
67508;SDS011;54354;44.724;11.284;2022-08-20T13:07:38;1.38;;;0.75;;
67508;SDS011;54354;44.724;11.284;2022-08-20T13:10:04;0.50;;;0.50;;
67508;SDS011;54354;44.724;11.284;2022-08-20T13:12:32;1.13;;;0.70;;
67508;SDS011;54354;44.724;11.284;2022-08-20T13:14:57;1.42;;;0.80;;
67508;SDS011;54354;44.724;11.284;2022-08-20T13:17:23;1.25;;;0.63;;
67508;SDS011;54354;44.724;11.284;2022-08-20T13:19:48;1.55;;;0.70;;
67508;SDS011;54354;44.724;11.284;2022-08-20T13:22:14;1.08;;;0.70;;
67508;SDS011;54354;44.724;11.284;2022-08-20T13:24:40;3.08;;;0.77;;
67508;SDS011;54354;44.724;11.284;2022-08-20T13:27:07;1.88;;;0.60;;
67508;SDS011;54354;44.724;11.284;2022-08-20T13:29:38;1.00;;;0.70;;
67508;SDS011;54354;44.724;11.284;2022-08-20T13:32:09;1.45;;;0.75;;
67508;SDS011;54354;44.724;11.284;2022-08-20T13:34:35;2.83;;;0.70;;
67508;SDS011;54354;44.724;11.284;2022-08-20T13:37:00;3.90;;;0.82;;
67508;SDS011;54354;44.724;11.284;2022-08-20T13:39:26;5.00;;;1.10;;
67508;SDS011;54354;44.724;11.284;2022-08-20T13:41:52;1.50;;;0.60;;
67508;SDS011;54354;44.724;11.284;2022-08-20T13:44:17;1.33;;;0.70;;
67508;SDS011;54354;44.724;11.284;2022-08-20T13:46:43;1.83;;;0.70;;
67508;SDS011;54354;44.724;11.284;2022-08-20T13:49:09;0.90;;;0.63;;
67508;SDS011;54354;44.724;11.284;2022-08-20T13:51:34;1.42;;;0.70;;
67508;SDS011;54354;44.724;11.284;2022-08-20T13:54:00;1.05;;;0.70;;
67508;SDS011;54354;44.724;11.284;2022-08-20T13:56:25;2.13;;;0.85;;
67508;SDS011;54354;44.724;11.284;2022-08-20T13:58:51;0.70;;;0.70;;
67508;SDS011;54354;44.724;11.284;2022-08-20T14:01:16;2.63;;;0.70;;
67508;SDS011;54354;44.724;11.284;2022-08-20T14:03:41;3.20;;;0.68;;
67508;SDS011;54354;44.724;11.284;2022-08-20T14:06:07;1.65;;;0.80;;
67508;SDS011;54354;44.724;11.284;2022-08-20T14:08:35;1.60;;;0.70;;
67508;SDS011;54354;44.724;11.284;2022-08-20T14:11:01;1.13;;;0.80;;
67508;SDS011;54354;44.724;11.284;2022-08-20T14:13:27;1.92;;;0.60;;
67508;SDS011;54354;44.724;11.284;2022-08-20T14:15:53;1.58;;;0.70;;
67508;SDS011;54354;44.724;11.284;2022-08-20T14:18:19;0.82;;;0.60;;
67508;SDS011;54354;44.724;11.284;2022-08-20T14:20:45;1.92;;;0.82;;
67508;SDS011;54354;44.724;11.284;2022-08-20T14:23:12;0.93;;;0.70;;
67508;SDS011;54354;44.724;11.284;2022-08-20T14:25:39;2.50;;;0.75;;
67508;SDS011;54354;44.724;11.284;2022-08-20T14:28:11;2.10;;;0.70;;
67508;SDS011;54354;44.724;11.284;2022-08-20T14:30:39;2.17;;;0.80;;
67508;SDS011;54354;44.724;11.284;2022-08-20T14:33:05;1.45;;;0.68;;
67508;SDS011;54354;44.724;11.284;2022-08-20T14:35:31;1.38;;;0.68;;
67508;SDS011;54354;44.724;11.284;2022-08-20T14:37:57;1.80;;;0.60;;
67508;SDS011;54354;44.724;11.284;2022-08-20T14:40:23;2.15;;;0.70;;
67508;SDS011;54354;44.724;11.284;2022-08-20T14:42:50;1.00;;;0.80;;
67508;SDS011;54354;44.724;11.284;2022-08-20T14:45:16;1.30;;;0.70;;
67508;SDS011;54354;44.724;11.284;2022-08-20T14:47:50;1.58;;;0.70;;
67508;SDS011;54354;44.724;11.284;2022-08-20T14:50:28;0.85;;;0.50;;
67508;SDS011;54354;44.724;11.284;2022-08-20T14:52:57;0.65;;;0.65;;
67508;SDS011;54354;44.724;11.284;2022-08-20T14:55:25;2.60;;;0.60;;
67508;SDS011;54354;44.724;11.284;2022-08-20T14:57:55;1.67;;;0.65;;
67508;SDS011;54354;44.724;11.284;2022-08-20T15:00:25;1.55;;;0.70;;
67508;SDS011;54354;44.724;11.284;2022-08-20T15:02:53;2.75;;;0.60;;
67508;SDS011;54354;44.724;11.284;2022-08-20T15:05:19;1.40;;;0.60;;
67508;SDS011;54354;44.724;11.284;2022-08-20T15:07:46;2.55;;;0.60;;
67508;SDS011;54354;44.724;11.284;2022-08-20T15:10:14;2.88;;;0.57;;
67508;SDS011;54354;44.724;11.284;2022-08-20T15:12:42;1.58;;;0.70;;
67508;SDS011;54354;44.724;11.284;2022-08-20T15:15:09;3.53;;;0.70;;
67508;SDS011;54354;44.724;11.284;2022-08-20T15:17:36;3.17;;;0.60;;
67508;SDS011;54354;44.724;11.284;2022-08-20T15:20:03;0.68;;;0.50;;
67508;SDS011;54354;44.724;11.284;2022-08-20T15:22:34;0.85;;;0.60;;
67508;SDS011;54354;44.724;11.284;2022-08-20T15:25:00;1.88;;;0.60;;
67508;SDS011;54354;44.724;11.284;2022-08-20T15:27:26;0.95;;;0.55;;
67508;SDS011;54354;44.724;11.284;2022-08-20T15:29:52;3.92;;;0.60;;
67508;SDS011;54354;44.724;11.284;2022-08-20T15:32:18;2.25;;;0.52;;
67508;SDS011;54354;44.724;11.284;2022-08-20T15:34:45;2.45;;;0.60;;
67508;SDS011;54354;44.724;11.284;2022-08-20T15:37:20;2.45;;;0.60;;
67508;SDS011;54354;44.724;11.284;2022-08-20T15:39:47;2.67;;;0.45;;
67508;SDS011;54354;44.724;11.284;2022-08-20T15:42:14;1.85;;;0.63;;
67508;SDS011;54354;44.724;11.284;2022-08-20T15:44:41;1.17;;;0.50;;
67508;SDS011;54354;44.724;11.284;2022-08-20T15:49:42;2.30;;;0.50;;
67508;SDS011;54354;44.724;11.284;2022-08-20T15:52:08;2.85;;;0.60;;
67508;SDS011;54354;44.724;11.284;2022-08-20T15:54:35;1.98;;;0.60;;
67508;SDS011;54354;44.724;11.284;2022-08-20T16:00:09;1.15;;;0.70;;
67508;SDS011;54354;44.724;11.284;2022-08-20T16:02:50;1.05;;;0.60;;
67508;SDS011;54354;44.724;11.284;2022-08-20T16:13:44;3.05;;;0.63;;
67508;SDS011;54354;44.724;11.284;2022-08-20T16:16:14;2.80;;;0.60;;